sensor_id;sensor_type;location;lat;lon;timestamp;P1;durP1;ratioP1;P2;durP2;ratioP2
52962;SDS011;38827;53.024;6.596;2022-12-29T00:01:32;4.45;;;3.45;;
52962;SDS011;38827;53.024;6.596;2022-12-29T00:03:58;4.00;;;3.60;;
52962;SDS011;38827;53.024;6.596;2022-12-29T00:06:24;4.25;;;3.85;;
52962;SDS011;38827;53.024;6.596;2022-12-29T00:08:50;4.63;;;3.60;;
52962;SDS011;38827;53.024;6.596;2022-12-29T00:11:17;4.88;;;3.90;;
52962;SDS011;38827;53.024;6.596;2022-12-29T00:13:48;4.43;;;3.80;;
52962;SDS011;38827;53.024;6.596;2022-12-29T00:16:33;5.10;;;4.03;;
52962;SDS011;38827;53.024;6.596;2022-12-29T00:19:00;5.70;;;4.28;;
52962;SDS011;38827;53.024;6.596;2022-12-29T00:21:26;5.05;;;4.47;;
52962;SDS011;38827;53.024;6.596;2022-12-29T00:24:18;4.65;;;4.25;;
52962;SDS011;38827;53.024;6.596;2022-12-29T00:29:53;5.22;;;4.43;;
52962;SDS011;38827;53.024;6.596;2022-12-29T00:32:41;5.78;;;4.57;;
52962;SDS011;38827;53.024;6.596;2022-12-29T00:35:29;4.70;;;4.20;;
52962;SDS011;38827;53.024;6.596;2022-12-29T00:38:02;4.60;;;4.20;;
52962;SDS011;38827;53.024;6.596;2022-12-29T00:40:49;4.13;;;3.72;;
52962;SDS011;38827;53.024;6.596;2022-12-29T00:43:33;4.95;;;4.05;;
52962;SDS011;38827;53.024;6.596;2022-12-29T00:46:17;4.75;;;3.50;;
52962;SDS011;38827;53.024;6.596;2022-12-29T00:48:49;4.63;;;4.22;;
52962;SDS011;38827;53.024;6.596;2022-12-29T00:51:33;4.75;;;4.07;;
52962;SDS011;38827;53.024;6.596;2022-12-29T00:53:58;5.38;;;3.90;;
52962;SDS011;38827;53.024;6.596;2022-12-29T00:56:24;4.97;;;3.92;;
52962;SDS011;38827;53.024;6.596;2022-12-29T00:58:50;4.25;;;3.90;;
52962;SDS011;38827;53.024;6.596;2022-12-29T01:01:15;3.97;;;3.58;;
52962;SDS011;38827;53.024;6.596;2022-12-29T01:03:41;3.90;;;3.60;;
52962;SDS011;38827;53.024;6.596;2022-12-29T01:06:08;5.50;;;3.83;;
52962;SDS011;38827;53.024;6.596;2022-12-29T01:08:35;4.65;;;3.55;;
52962;SDS011;38827;53.024;6.596;2022-12-29T01:11:10;7.13;;;4.20;;
52962;SDS011;38827;53.024;6.596;2022-12-29T01:13:37;6.20;;;3.83;;
52962;SDS011;38827;53.024;6.596;2022-12-29T01:16:04;4.88;;;3.47;;
52962;SDS011;38827;53.024;6.596;2022-12-29T01:18:30;4.30;;;3.47;;
52962;SDS011;38827;53.024;6.596;2022-12-29T01:21:00;4.57;;;3.60;;
52962;SDS011;38827;53.024;6.596;2022-12-29T01:23:27;4.30;;;3.30;;
52962;SDS011;38827;53.024;6.596;2022-12-29T01:25:53;3.55;;;3.22;;
52962;SDS011;38827;53.024;6.596;2022-12-29T01:28:19;3.90;;;3.17;;
52962;SDS011;38827;53.024;6.596;2022-12-29T01:30:45;3.72;;;3.38;;
52962;SDS011;38827;53.024;6.596;2022-12-29T01:33:11;4.05;;;3.33;;
52962;SDS011;38827;53.024;6.596;2022-12-29T01:35:36;4.00;;;3.40;;
52962;SDS011;38827;53.024;6.596;2022-12-29T01:38:02;4.82;;;3.13;;
52962;SDS011;38827;53.024;6.596;2022-12-29T01:40:28;3.67;;;3.28;;
52962;SDS011;38827;53.024;6.596;2022-12-29T01:45:36;3.25;;;2.83;;
52962;SDS011;38827;53.024;6.596;2022-12-29T01:48:03;3.30;;;2.88;;
52962;SDS011;38827;53.024;6.596;2022-12-29T01:50:50;4.35;;;3.00;;
52962;SDS011;38827;53.024;6.596;2022-12-29T01:53:36;3.00;;;2.70;;
52962;SDS011;38827;53.024;6.596;2022-12-29T01:56:04;3.72;;;3.00;;
52962;SDS011;38827;53.024;6.596;2022-12-29T01:58:37;3.90;;;2.55;;
52962;SDS011;38827;53.024;6.596;2022-12-29T02:01:06;3.65;;;2.75;;
52962;SDS011;38827;53.024;6.596;2022-12-29T02:03:33;3.20;;;2.50;;
52962;SDS011;38827;53.024;6.596;2022-12-29T02:06:14;4.22;;;2.60;;
52962;SDS011;38827;53.024;6.596;2022-12-29T02:08:47;3.58;;;2.58;;
52962;SDS011;38827;53.024;6.596;2022-12-29T02:11:15;3.13;;;2.40;;
52962;SDS011;38827;53.024;6.596;2022-12-29T02:13:41;3.88;;;2.67;;
52962;SDS011;38827;53.024;6.596;2022-12-29T02:32:20;3.05;;;2.75;;
52962;SDS011;38827;53.024;6.596;2022-12-29T02:45:49;2.97;;;2.30;;
52962;SDS011;38827;53.024;6.596;2022-12-29T02:48:54;4.03;;;2.40;;
52962;SDS011;38827;53.024;6.596;2022-12-29T02:51:57;3.47;;;2.22;;
52962;SDS011;38827;53.024;6.596;2022-12-29T02:54:35;4.50;;;2.08;;
52962;SDS011;38827;53.024;6.596;2022-12-29T02:59:58;3.10;;;1.98;;
52962;SDS011;38827;53.024;6.596;2022-12-29T03:08:15;2.40;;;1.65;;
52962;SDS011;38827;53.024;6.596;2022-12-29T03:13:39;2.05;;;1.42;;
52962;SDS011;38827;53.024;6.596;2022-12-29T03:19:47;1.88;;;1.23;;
52962;SDS011;38827;53.024;6.596;2022-12-29T03:22:22;2.05;;;1.30;;
52962;SDS011;38827;53.024;6.596;2022-12-29T03:27:39;1.25;;;1.05;;
52962;SDS011;38827;53.024;6.596;2022-12-29T03:30:09;2.33;;;1.20;;
52962;SDS011;38827;53.024;6.596;2022-12-29T03:32:43;1.75;;;1.33;;
52962;SDS011;38827;53.024;6.596;2022-12-29T03:35:13;1.75;;;1.58;;
52962;SDS011;38827;53.024;6.596;2022-12-29T03:37:41;2.35;;;1.38;;
52962;SDS011;38827;53.024;6.596;2022-12-29T03:40:31;1.73;;;1.20;;
52962;SDS011;38827;53.024;6.596;2022-12-29T03:42:59;2.83;;;1.40;;
52962;SDS011;38827;53.024;6.596;2022-12-29T03:45:26;3.00;;;1.40;;
52962;SDS011;38827;53.024;6.596;2022-12-29T03:47:53;3.05;;;1.40;;
52962;SDS011;38827;53.024;6.596;2022-12-29T03:50:19;5.07;;;1.40;;
52962;SDS011;38827;53.024;6.596;2022-12-29T03:52:44;3.90;;;1.38;;
52962;SDS011;38827;53.024;6.596;2022-12-29T03:55:10;2.72;;;1.20;;
52962;SDS011;38827;53.024;6.596;2022-12-29T03:57:36;1.70;;;1.10;;
52962;SDS011;38827;53.024;6.596;2022-12-29T04:00:03;3.78;;;1.35;;
52962;SDS011;38827;53.024;6.596;2022-12-29T04:02:30;2.85;;;1.40;;
52962;SDS011;38827;53.024;6.596;2022-12-29T04:04:56;2.17;;;1.27;;
52962;SDS011;38827;53.024;6.596;2022-12-29T04:07:21;1.65;;;1.30;;
52962;SDS011;38827;53.024;6.596;2022-12-29T04:09:47;3.92;;;1.48;;
52962;SDS011;38827;53.024;6.596;2022-12-29T04:12:13;5.13;;;1.38;;
52962;SDS011;38827;53.024;6.596;2022-12-29T04:14:39;2.50;;;1.10;;
52962;SDS011;38827;53.024;6.596;2022-12-29T04:17:05;2.92;;;0.88;;
52962;SDS011;38827;53.024;6.596;2022-12-29T04:19:31;3.72;;;1.08;;
52962;SDS011;38827;53.024;6.596;2022-12-29T04:21:56;3.22;;;1.00;;
52962;SDS011;38827;53.024;6.596;2022-12-29T04:24:22;3.28;;;1.27;;
52962;SDS011;38827;53.024;6.596;2022-12-29T04:26:48;5.75;;;1.10;;
52962;SDS011;38827;53.024;6.596;2022-12-29T04:29:13;4.72;;;1.05;;
52962;SDS011;38827;53.024;6.596;2022-12-29T04:31:42;2.65;;;1.00;;
52962;SDS011;38827;53.024;6.596;2022-12-29T04:34:08;3.55;;;0.90;;
52962;SDS011;38827;53.024;6.596;2022-12-29T04:36:33;3.88;;;0.90;;
52962;SDS011;38827;53.024;6.596;2022-12-29T04:38:59;2.05;;;0.70;;
52962;SDS011;38827;53.024;6.596;2022-12-29T04:41:25;1.73;;;0.80;;
52962;SDS011;38827;53.024;6.596;2022-12-29T04:43:50;3.20;;;0.80;;
52962;SDS011;38827;53.024;6.596;2022-12-29T04:46:16;3.25;;;0.65;;
52962;SDS011;38827;53.024;6.596;2022-12-29T04:52:39;1.95;;;0.70;;
52962;SDS011;38827;53.024;6.596;2022-12-29T04:55:05;2.38;;;0.90;;
52962;SDS011;38827;53.024;6.596;2022-12-29T04:57:31;2.40;;;0.80;;
52962;SDS011;38827;53.024;6.596;2022-12-29T04:59:57;4.97;;;1.15;;
52962;SDS011;38827;53.024;6.596;2022-12-29T05:02:23;5.10;;;1.10;;
52962;SDS011;38827;53.024;6.596;2022-12-29T05:04:49;5.25;;;1.00;;
52962;SDS011;38827;53.024;6.596;2022-12-29T05:07:15;3.53;;;1.20;;
52962;SDS011;38827;53.024;6.596;2022-12-29T05:09:41;5.57;;;1.20;;
52962;SDS011;38827;53.024;6.596;2022-12-29T05:12:07;5.15;;;1.13;;
52962;SDS011;38827;53.024;6.596;2022-12-29T05:14:33;6.00;;;1.63;;
52962;SDS011;38827;53.024;6.596;2022-12-29T05:16:58;5.97;;;1.40;;
52962;SDS011;38827;53.024;6.596;2022-12-29T05:19:24;6.47;;;1.20;;
52962;SDS011;38827;53.024;6.596;2022-12-29T05:21:50;5.43;;;1.33;;
52962;SDS011;38827;53.024;6.596;2022-12-29T05:24:15;7.40;;;1.73;;
52962;SDS011;38827;53.024;6.596;2022-12-29T05:26:41;7.13;;;1.67;;
52962;SDS011;38827;53.024;6.596;2022-12-29T05:29:06;5.15;;;1.40;;
52962;SDS011;38827;53.024;6.596;2022-12-29T05:31:35;6.78;;;1.42;;
52962;SDS011;38827;53.024;6.596;2022-12-29T05:34:01;6.10;;;1.55;;
52962;SDS011;38827;53.024;6.596;2022-12-29T05:36:27;9.27;;;1.77;;
52962;SDS011;38827;53.024;6.596;2022-12-29T05:38:53;7.65;;;1.83;;
52962;SDS011;38827;53.024;6.596;2022-12-29T05:41:18;8.85;;;1.50;;
52962;SDS011;38827;53.024;6.596;2022-12-29T05:43:44;8.00;;;1.38;;
52962;SDS011;38827;53.024;6.596;2022-12-29T05:46:10;9.60;;;1.80;;
52962;SDS011;38827;53.024;6.596;2022-12-29T05:48:35;8.27;;;1.70;;
52962;SDS011;38827;53.024;6.596;2022-12-29T05:51:01;8.68;;;1.65;;
52962;SDS011;38827;53.024;6.596;2022-12-29T05:53:27;6.63;;;1.30;;
52962;SDS011;38827;53.024;6.596;2022-12-29T05:55:52;8.82;;;1.52;;
52962;SDS011;38827;53.024;6.596;2022-12-29T05:58:18;6.22;;;1.23;;
52962;SDS011;38827;53.024;6.596;2022-12-29T06:00:44;8.00;;;1.63;;
52962;SDS011;38827;53.024;6.596;2022-12-29T06:03:12;6.07;;;1.48;;
52962;SDS011;38827;53.024;6.596;2022-12-29T06:05:39;4.07;;;1.20;;
52962;SDS011;38827;53.024;6.596;2022-12-29T06:08:05;5.95;;;1.40;;
52962;SDS011;38827;53.024;6.596;2022-12-29T06:10:31;6.90;;;1.40;;
52962;SDS011;38827;53.024;6.596;2022-12-29T06:12:56;4.57;;;1.20;;
52962;SDS011;38827;53.024;6.596;2022-12-29T06:15:22;7.95;;;1.90;;
52962;SDS011;38827;53.024;6.596;2022-12-29T06:17:47;4.60;;;1.23;;
52962;SDS011;38827;53.024;6.596;2022-12-29T06:20:13;8.13;;;1.70;;
52962;SDS011;38827;53.024;6.596;2022-12-29T06:22:39;10.07;;;2.05;;
52962;SDS011;38827;53.024;6.596;2022-12-29T06:25:04;5.55;;;1.17;;
52962;SDS011;38827;53.024;6.596;2022-12-29T06:27:30;9.20;;;2.42;;
52962;SDS011;38827;53.024;6.596;2022-12-29T06:29:56;8.23;;;1.65;;
52962;SDS011;38827;53.024;6.596;2022-12-29T06:32:22;6.18;;;1.40;;
52962;SDS011;38827;53.024;6.596;2022-12-29T06:34:48;10.48;;;1.92;;
52962;SDS011;38827;53.024;6.596;2022-12-29T06:37:14;7.93;;;1.42;;
52962;SDS011;38827;53.024;6.596;2022-12-29T06:39:40;12.27;;;2.08;;
52962;SDS011;38827;53.024;6.596;2022-12-29T06:42:05;11.45;;;2.30;;
52962;SDS011;38827;53.024;6.596;2022-12-29T06:44:33;12.85;;;1.98;;
52962;SDS011;38827;53.024;6.596;2022-12-29T06:46:59;12.52;;;2.45;;
52962;SDS011;38827;53.024;6.596;2022-12-29T06:49:25;9.68;;;1.67;;
52962;SDS011;38827;53.024;6.596;2022-12-29T06:51:50;6.18;;;1.73;;
52962;SDS011;38827;53.024;6.596;2022-12-29T06:54:16;8.68;;;1.95;;
52962;SDS011;38827;53.024;6.596;2022-12-29T06:56:41;12.77;;;2.03;;
52962;SDS011;38827;53.024;6.596;2022-12-29T06:59:07;14.18;;;2.25;;
52962;SDS011;38827;53.024;6.596;2022-12-29T07:01:34;11.15;;;1.80;;
52962;SDS011;38827;53.024;6.596;2022-12-29T07:04:00;8.85;;;1.50;;
52962;SDS011;38827;53.024;6.596;2022-12-29T07:06:27;11.57;;;2.35;;
52962;SDS011;38827;53.024;6.596;2022-12-29T07:08:53;8.85;;;1.83;;
52962;SDS011;38827;53.024;6.596;2022-12-29T07:11:20;7.43;;;1.45;;
52962;SDS011;38827;53.024;6.596;2022-12-29T07:13:46;6.45;;;1.55;;
52962;SDS011;38827;53.024;6.596;2022-12-29T07:16:12;8.82;;;1.90;;
52962;SDS011;38827;53.024;6.596;2022-12-29T07:18:37;11.45;;;2.35;;
52962;SDS011;38827;53.024;6.596;2022-12-29T07:21:03;11.85;;;1.80;;
52962;SDS011;38827;53.024;6.596;2022-12-29T07:23:30;12.38;;;1.77;;
52962;SDS011;38827;53.024;6.596;2022-12-29T07:25:59;12.35;;;2.42;;
52962;SDS011;38827;53.024;6.596;2022-12-29T07:28:29;11.77;;;2.80;;
52962;SDS011;38827;53.024;6.596;2022-12-29T07:30:56;11.18;;;2.20;;
52962;SDS011;38827;53.024;6.596;2022-12-29T07:33:21;7.22;;;1.63;;
52962;SDS011;38827;53.024;6.596;2022-12-29T07:35:47;8.35;;;1.95;;
52962;SDS011;38827;53.024;6.596;2022-12-29T07:38:13;10.65;;;1.88;;
52962;SDS011;38827;53.024;6.596;2022-12-29T07:40:39;11.98;;;2.40;;
52962;SDS011;38827;53.024;6.596;2022-12-29T07:43:05;12.93;;;2.50;;
52962;SDS011;38827;53.024;6.596;2022-12-29T07:45:34;10.25;;;2.63;;
52962;SDS011;38827;53.024;6.596;2022-12-29T07:48:00;9.05;;;2.17;;
52962;SDS011;38827;53.024;6.596;2022-12-29T07:50:27;11.18;;;2.15;;
52962;SDS011;38827;53.024;6.596;2022-12-29T07:55:55;9.80;;;1.90;;
52962;SDS011;38827;53.024;6.596;2022-12-29T07:58:21;7.75;;;1.98;;
52962;SDS011;38827;53.024;6.596;2022-12-29T08:00:46;9.18;;;1.60;;
52962;SDS011;38827;53.024;6.596;2022-12-29T08:03:12;12.65;;;2.03;;
52962;SDS011;38827;53.024;6.596;2022-12-29T08:05:38;11.90;;;2.13;;
52962;SDS011;38827;53.024;6.596;2022-12-29T08:08:03;12.23;;;2.33;;
52962;SDS011;38827;53.024;6.596;2022-12-29T08:10:29;9.45;;;2.08;;
52962;SDS011;38827;53.024;6.596;2022-12-29T08:12:55;11.40;;;2.13;;
52962;SDS011;38827;53.024;6.596;2022-12-29T08:15:20;10.23;;;1.90;;
52962;SDS011;38827;53.024;6.596;2022-12-29T08:17:47;10.52;;;2.08;;
52962;SDS011;38827;53.024;6.596;2022-12-29T08:22:39;9.57;;;2.03;;
52962;SDS011;38827;53.024;6.596;2022-12-29T08:25:05;11.98;;;2.38;;
52962;SDS011;38827;53.024;6.596;2022-12-29T08:27:31;11.95;;;2.25;;
52962;SDS011;38827;53.024;6.596;2022-12-29T08:29:56;13.40;;;2.83;;
52962;SDS011;38827;53.024;6.596;2022-12-29T08:32:22;11.48;;;1.88;;
52962;SDS011;38827;53.024;6.596;2022-12-29T08:34:48;13.98;;;2.58;;
52962;SDS011;38827;53.024;6.596;2022-12-29T08:37:13;15.07;;;2.65;;
52962;SDS011;38827;53.024;6.596;2022-12-29T08:39:39;14.50;;;3.08;;
52962;SDS011;38827;53.024;6.596;2022-12-29T08:42:05;15.25;;;2.50;;
52962;SDS011;38827;53.024;6.596;2022-12-29T08:44:31;12.13;;;2.58;;
52962;SDS011;38827;53.024;6.596;2022-12-29T08:46:57;17.70;;;3.30;;
52962;SDS011;38827;53.024;6.596;2022-12-29T08:49:26;17.40;;;2.65;;
52962;SDS011;38827;53.024;6.596;2022-12-29T08:51:52;17.88;;;2.90;;
52962;SDS011;38827;53.024;6.596;2022-12-29T08:54:17;14.95;;;2.90;;
52962;SDS011;38827;53.024;6.596;2022-12-29T08:56:44;12.65;;;2.53;;
52962;SDS011;38827;53.024;6.596;2022-12-29T08:59:22;17.58;;;2.63;;
52962;SDS011;38827;53.024;6.596;2022-12-29T09:01:48;12.10;;;2.47;;
52962;SDS011;38827;53.024;6.596;2022-12-29T09:04:14;10.75;;;2.08;;
52962;SDS011;38827;53.024;6.596;2022-12-29T09:06:39;15.73;;;2.72;;
52962;SDS011;38827;53.024;6.596;2022-12-29T09:09:05;13.25;;;2.28;;
52962;SDS011;38827;53.024;6.596;2022-12-29T09:11:31;18.27;;;2.92;;
52962;SDS011;38827;53.024;6.596;2022-12-29T09:13:57;12.75;;;2.40;;
52962;SDS011;38827;53.024;6.596;2022-12-29T09:16:23;11.18;;;2.40;;
52962;SDS011;38827;53.024;6.596;2022-12-29T09:24:47;11.88;;;2.13;;
52962;SDS011;38827;53.024;6.596;2022-12-29T09:27:13;11.18;;;2.17;;
52962;SDS011;38827;53.024;6.596;2022-12-29T09:29:38;13.35;;;2.58;;
52962;SDS011;38827;53.024;6.596;2022-12-29T09:32:04;14.70;;;2.30;;
52962;SDS011;38827;53.024;6.596;2022-12-29T09:34:29;10.77;;;2.33;;
52962;SDS011;38827;53.024;6.596;2022-12-29T09:36:55;16.40;;;2.47;;
52962;SDS011;38827;53.024;6.596;2022-12-29T09:39:21;15.73;;;2.63;;
52962;SDS011;38827;53.024;6.596;2022-12-29T09:47:24;15.48;;;2.80;;
52962;SDS011;38827;53.024;6.596;2022-12-29T09:49:53;16.83;;;3.03;;
52962;SDS011;38827;53.024;6.596;2022-12-29T09:52:32;10.38;;;1.88;;
52962;SDS011;38827;53.024;6.596;2022-12-29T09:55:21;9.02;;;2.10;;
52962;SDS011;38827;53.024;6.596;2022-12-29T09:57:56;14.02;;;2.70;;
52962;SDS011;38827;53.024;6.596;2022-12-29T10:00:33;16.58;;;2.60;;
52962;SDS011;38827;53.024;6.596;2022-12-29T10:03:10;10.30;;;2.10;;
52962;SDS011;38827;53.024;6.596;2022-12-29T10:08:23;11.75;;;2.40;;
52962;SDS011;38827;53.024;6.596;2022-12-29T10:13:48;16.95;;;2.38;;
52962;SDS011;38827;53.024;6.596;2022-12-29T10:36:20;12.02;;;2.15;;
52962;SDS011;38827;53.024;6.596;2022-12-29T10:39:29;10.80;;;2.40;;
52962;SDS011;38827;53.024;6.596;2022-12-29T10:42:38;8.13;;;2.13;;
52962;SDS011;38827;53.024;6.596;2022-12-29T10:45:13;15.85;;;2.10;;
52962;SDS011;38827;53.024;6.596;2022-12-29T10:59:16;5.85;;;1.73;;
52962;SDS011;38827;53.024;6.596;2022-12-29T11:07:43;13.32;;;1.98;;
52962;SDS011;38827;53.024;6.596;2022-12-29T11:15:26;11.55;;;1.85;;
52962;SDS011;38827;53.024;6.596;2022-12-29T11:17:53;13.55;;;2.35;;
52962;SDS011;38827;53.024;6.596;2022-12-29T11:22:54;12.85;;;1.90;;
52962;SDS011;38827;53.024;6.596;2022-12-29T11:25:20;10.77;;;1.85;;
52962;SDS011;38827;53.024;6.596;2022-12-29T11:30:43;11.02;;;2.42;;
52962;SDS011;38827;53.024;6.596;2022-12-29T11:33:09;11.77;;;2.35;;
52962;SDS011;38827;53.024;6.596;2022-12-29T11:35:36;8.88;;;2.35;;
52962;SDS011;38827;53.024;6.596;2022-12-29T11:38:16;13.35;;;2.58;;
52962;SDS011;38827;53.024;6.596;2022-12-29T11:40:48;12.05;;;3.00;;
52962;SDS011;38827;53.024;6.596;2022-12-29T11:43:21;15.88;;;2.90;;
52962;SDS011;38827;53.024;6.596;2022-12-29T11:45:54;15.30;;;3.20;;
52962;SDS011;38827;53.024;6.596;2022-12-29T11:50:50;16.53;;;2.70;;
52962;SDS011;38827;53.024;6.596;2022-12-29T11:53:22;19.20;;;2.55;;
52962;SDS011;38827;53.024;6.596;2022-12-29T11:58:18;17.25;;;2.63;;
52962;SDS011;38827;53.024;6.596;2022-12-29T12:00:44;15.88;;;3.25;;
52962;SDS011;38827;53.024;6.596;2022-12-29T12:03:21;18.52;;;3.67;;
52962;SDS011;38827;53.024;6.596;2022-12-29T12:11:04;17.55;;;3.30;;
52962;SDS011;38827;53.024;6.596;2022-12-29T12:13:33;20.13;;;3.70;;
52962;SDS011;38827;53.024;6.596;2022-12-29T12:16:22;16.10;;;3.65;;
52962;SDS011;38827;53.024;6.596;2022-12-29T12:18:56;24.15;;;3.53;;
52962;SDS011;38827;53.024;6.596;2022-12-29T12:24:52;17.25;;;4.28;;
52962;SDS011;38827;53.024;6.596;2022-12-29T12:27:36;19.00;;;3.33;;
52962;SDS011;38827;53.024;6.596;2022-12-29T12:30:18;18.00;;;3.60;;
52962;SDS011;38827;53.024;6.596;2022-12-29T12:32:50;23.08;;;3.65;;
52962;SDS011;38827;53.024;6.596;2022-12-29T12:35:26;15.05;;;3.45;;
52962;SDS011;38827;53.024;6.596;2022-12-29T12:41:06;20.55;;;3.97;;
52962;SDS011;38827;53.024;6.596;2022-12-29T12:43:37;20.75;;;3.72;;
52962;SDS011;38827;53.024;6.596;2022-12-29T12:46:22;22.45;;;3.95;;
52962;SDS011;38827;53.024;6.596;2022-12-29T12:49:24;18.88;;;3.53;;
52962;SDS011;38827;53.024;6.596;2022-12-29T13:10:54;15.32;;;2.67;;
52962;SDS011;38827;53.024;6.596;2022-12-29T13:13:52;10.93;;;2.72;;
52962;SDS011;38827;53.024;6.596;2022-12-29T13:16:57;12.82;;;2.58;;
52962;SDS011;38827;53.024;6.596;2022-12-29T13:22:55;14.10;;;2.70;;
52962;SDS011;38827;53.024;6.596;2022-12-29T13:28:22;16.65;;;2.90;;
52962;SDS011;38827;53.024;6.596;2022-12-29T13:31:00;14.82;;;2.55;;
52962;SDS011;38827;53.024;6.596;2022-12-29T13:36:48;12.05;;;2.45;;
52962;SDS011;38827;53.024;6.596;2022-12-29T13:42:03;15.50;;;2.75;;
52962;SDS011;38827;53.024;6.596;2022-12-29T13:44:44;13.30;;;2.78;;
52962;SDS011;38827;53.024;6.596;2022-12-29T13:50:58;10.43;;;2.25;;
52962;SDS011;38827;53.024;6.596;2022-12-29T13:59:32;8.38;;;2.10;;
52962;SDS011;38827;53.024;6.596;2022-12-29T14:06:03;14.30;;;2.95;;
52962;SDS011;38827;53.024;6.596;2022-12-29T14:12:19;14.27;;;3.25;;
52962;SDS011;38827;53.024;6.596;2022-12-29T14:15:04;15.88;;;2.50;;
52962;SDS011;38827;53.024;6.596;2022-12-29T14:17:33;15.57;;;2.97;;
52962;SDS011;38827;53.024;6.596;2022-12-29T14:19:59;15.70;;;3.28;;
52962;SDS011;38827;53.024;6.596;2022-12-29T14:22:26;13.43;;;3.58;;
52962;SDS011;38827;53.024;6.596;2022-12-29T14:24:53;17.40;;;2.70;;
52962;SDS011;38827;53.024;6.596;2022-12-29T14:29:45;15.43;;;3.05;;
52962;SDS011;38827;53.024;6.596;2022-12-29T14:38:30;13.00;;;2.58;;
52962;SDS011;38827;53.024;6.596;2022-12-29T14:44:15;14.80;;;4.35;;
52962;SDS011;38827;53.024;6.596;2022-12-29T14:47:11;14.68;;;2.90;;
52962;SDS011;38827;53.024;6.596;2022-12-29T14:59:44;13.45;;;3.22;;
52962;SDS011;38827;53.024;6.596;2022-12-29T15:02:19;14.43;;;2.58;;
52962;SDS011;38827;53.024;6.596;2022-12-29T15:18:41;14.60;;;2.50;;
52962;SDS011;38827;53.024;6.596;2022-12-29T15:21:15;10.77;;;3.10;;
52962;SDS011;38827;53.024;6.596;2022-12-29T15:27:34;8.15;;;2.40;;
52962;SDS011;38827;53.024;6.596;2022-12-29T15:45:04;10.43;;;2.60;;
52962;SDS011;38827;53.024;6.596;2022-12-29T16:05:09;15.43;;;2.60;;
52962;SDS011;38827;53.024;6.596;2022-12-29T16:10:36;16.23;;;3.15;;
52962;SDS011;38827;53.024;6.596;2022-12-29T16:16:19;17.45;;;2.88;;
52962;SDS011;38827;53.024;6.596;2022-12-29T16:31:06;14.52;;;2.80;;
52962;SDS011;38827;53.024;6.596;2022-12-29T16:33:52;11.05;;;2.40;;
52962;SDS011;38827;53.024;6.596;2022-12-29T16:36:23;12.77;;;2.30;;
52962;SDS011;38827;53.024;6.596;2022-12-29T16:41:46;12.63;;;2.20;;
52962;SDS011;38827;53.024;6.596;2022-12-29T16:44:25;12.85;;;2.45;;
52962;SDS011;38827;53.024;6.596;2022-12-29T16:49:38;11.30;;;2.92;;
52962;SDS011;38827;53.024;6.596;2022-12-29T16:52:12;8.75;;;2.28;;
52962;SDS011;38827;53.024;6.596;2022-12-29T16:54:44;8.65;;;1.80;;
52962;SDS011;38827;53.024;6.596;2022-12-29T16:57:36;7.03;;;1.67;;
52962;SDS011;38827;53.024;6.596;2022-12-29T17:00:06;4.50;;;1.73;;
52962;SDS011;38827;53.024;6.596;2022-12-29T17:02:42;6.53;;;1.58;;
52962;SDS011;38827;53.024;6.596;2022-12-29T17:05:13;5.30;;;1.92;;
52962;SDS011;38827;53.024;6.596;2022-12-29T17:07:42;5.25;;;1.48;;
52962;SDS011;38827;53.024;6.596;2022-12-29T17:10:09;4.03;;;1.38;;
52962;SDS011;38827;53.024;6.596;2022-12-29T17:12:35;4.78;;;1.20;;
52962;SDS011;38827;53.024;6.596;2022-12-29T17:15:06;5.18;;;1.08;;
52962;SDS011;38827;53.024;6.596;2022-12-29T17:17:47;3.72;;;1.20;;
52962;SDS011;38827;53.024;6.596;2022-12-29T17:20:21;4.43;;;1.10;;
52962;SDS011;38827;53.024;6.596;2022-12-29T17:22:51;6.28;;;1.40;;
52962;SDS011;38827;53.024;6.596;2022-12-29T17:25:21;7.63;;;1.70;;
52962;SDS011;38827;53.024;6.596;2022-12-29T17:27:53;5.95;;;1.30;;
52962;SDS011;38827;53.024;6.596;2022-12-29T17:30:25;6.80;;;1.55;;
52962;SDS011;38827;53.024;6.596;2022-12-29T17:35:28;9.88;;;2.42;;
52962;SDS011;38827;53.024;6.596;2022-12-29T17:37:54;11.48;;;3.20;;
52962;SDS011;38827;53.024;6.596;2022-12-29T17:40:20;10.90;;;3.45;;
52962;SDS011;38827;53.024;6.596;2022-12-29T17:42:49;11.48;;;3.35;;
52962;SDS011;38827;53.024;6.596;2022-12-29T17:45:19;10.60;;;3.35;;
52962;SDS011;38827;53.024;6.596;2022-12-29T17:47:48;8.88;;;2.17;;
52962;SDS011;38827;53.024;6.596;2022-12-29T17:50:14;9.40;;;2.53;;
52962;SDS011;38827;53.024;6.596;2022-12-29T17:52:51;9.50;;;2.35;;
52962;SDS011;38827;53.024;6.596;2022-12-29T17:55:19;9.63;;;2.42;;
52962;SDS011;38827;53.024;6.596;2022-12-29T17:57:47;8.93;;;2.85;;
52962;SDS011;38827;53.024;6.596;2022-12-29T18:00:17;12.00;;;3.00;;
52962;SDS011;38827;53.024;6.596;2022-12-29T18:02:45;10.57;;;3.00;;
52962;SDS011;38827;53.024;6.596;2022-12-29T18:05:17;11.20;;;2.80;;
52962;SDS011;38827;53.024;6.596;2022-12-29T18:07:48;11.68;;;3.15;;
52962;SDS011;38827;53.024;6.596;2022-12-29T18:10:16;14.23;;;3.10;;
52962;SDS011;38827;53.024;6.596;2022-12-29T18:12:45;10.50;;;2.92;;
52962;SDS011;38827;53.024;6.596;2022-12-29T18:15:23;13.38;;;3.33;;
52962;SDS011;38827;53.024;6.596;2022-12-29T18:20:41;10.30;;;3.55;;
52962;SDS011;38827;53.024;6.596;2022-12-29T18:26:28;16.55;;;4.40;;
52962;SDS011;38827;53.024;6.596;2022-12-29T18:28:56;13.90;;;4.82;;
52962;SDS011;38827;53.024;6.596;2022-12-29T18:31:24;16.67;;;3.45;;
52962;SDS011;38827;53.024;6.596;2022-12-29T18:33:51;19.23;;;3.78;;
52962;SDS011;38827;53.024;6.596;2022-12-29T18:36:18;13.15;;;3.20;;
52962;SDS011;38827;53.024;6.596;2022-12-29T18:38:44;18.83;;;4.93;;
52962;SDS011;38827;53.024;6.596;2022-12-29T18:41:14;11.75;;;4.13;;
52962;SDS011;38827;53.024;6.596;2022-12-29T18:43:47;15.52;;;4.68;;
52962;SDS011;38827;53.024;6.596;2022-12-29T18:46:13;18.40;;;4.22;;
52962;SDS011;38827;53.024;6.596;2022-12-29T18:48:38;14.88;;;4.63;;
52962;SDS011;38827;53.024;6.596;2022-12-29T18:51:05;22.35;;;4.68;;
52962;SDS011;38827;53.024;6.596;2022-12-29T18:53:31;19.45;;;4.25;;
52962;SDS011;38827;53.024;6.596;2022-12-29T18:56:01;18.33;;;3.95;;
52962;SDS011;38827;53.024;6.596;2022-12-29T18:58:27;19.65;;;4.78;;
52962;SDS011;38827;53.024;6.596;2022-12-29T19:00:52;14.77;;;3.92;;
52962;SDS011;38827;53.024;6.596;2022-12-29T19:03:18;23.40;;;4.87;;
52962;SDS011;38827;53.024;6.596;2022-12-29T19:05:49;15.88;;;4.72;;
52962;SDS011;38827;53.024;6.596;2022-12-29T19:08:15;14.68;;;3.97;;
52962;SDS011;38827;53.024;6.596;2022-12-29T19:10:41;14.60;;;3.65;;
52962;SDS011;38827;53.024;6.596;2022-12-29T19:13:18;15.60;;;3.45;;
52962;SDS011;38827;53.024;6.596;2022-12-29T19:15:47;21.42;;;3.95;;
52962;SDS011;38827;53.024;6.596;2022-12-29T19:18:16;19.38;;;3.50;;
52962;SDS011;38827;53.024;6.596;2022-12-29T19:20:44;20.33;;;4.15;;
52962;SDS011;38827;53.024;6.596;2022-12-29T19:28:04;15.23;;;3.83;;
52962;SDS011;38827;53.024;6.596;2022-12-29T19:30:34;17.17;;;4.03;;
52962;SDS011;38827;53.024;6.596;2022-12-29T19:33:03;17.90;;;4.40;;
52962;SDS011;38827;53.024;6.596;2022-12-29T19:35:29;20.00;;;3.35;;
52962;SDS011;38827;53.024;6.596;2022-12-29T19:37:55;13.40;;;3.60;;
52962;SDS011;38827;53.024;6.596;2022-12-29T19:40:21;15.73;;;4.03;;
52962;SDS011;38827;53.024;6.596;2022-12-29T19:42:49;19.02;;;3.00;;
52962;SDS011;38827;53.024;6.596;2022-12-29T19:45:16;19.90;;;3.95;;
52962;SDS011;38827;53.024;6.596;2022-12-29T19:47:42;18.70;;;3.67;;
52962;SDS011;38827;53.024;6.596;2022-12-29T19:50:08;21.67;;;4.30;;
52962;SDS011;38827;53.024;6.596;2022-12-29T19:52:36;19.30;;;3.63;;
52962;SDS011;38827;53.024;6.596;2022-12-29T19:55:02;23.48;;;4.80;;
52962;SDS011;38827;53.024;6.596;2022-12-29T19:57:29;14.63;;;3.70;;